Time;durP1;ratioP1;P1;durP2;ratioP2;P2;SDS_P1;SDS_P2;PMS_P1;PMS_P2;Temp;Humidity;BMP_temperature;BMP_pressure;BME280_temperature;BME280_humidity;BME280_pressure;Samples;Min_cycle;Max_cycle;Signal;HPM_P1;HPM_P2
2023/10/20 00:00:40;;;;;;;;;;;;;;;13.66;100.00;98633.13;5014969;28;20390;-67
2023/10/20 00:03:05;;;;;;;;;;;;;;;13.71;100.00;98637.94;5012427;28;19978;-67
2023/10/20 00:05:30;;;;;;;;;;;;;;;13.68;100.00;98633.75;5013885;28;19968;-68
2023/10/20 00:07:55;;;;;;;;;;;;;;;13.69;100.00;98640.81;5014333;28;20040;-67
2023/10/20 00:10:20;;;;;;;;;;;;;;;13.68;100.00;98644.53;5015255;28;20012;-67
2023/10/20 00:12:46;;;;;;;;;;;;;;;13.70;100.00;98638.97;5012568;28;20380;-67
2023/10/20 00:15:13;;;;;;;;;;;;;;;13.66;100.00;98630.41;5014425;28;19917;-67
2023/10/20 00:17:39;;;;;;;;;;;;;;;13.65;100.00;98626.91;5011892;28;19944;-67
2023/10/20 00:20:04;;;;;;;;;;;;;;;13.65;100.00;98629.59;5013818;28;19921;-67
2023/10/20 00:22:30;;;;;;;;;;;;;;;13.68;100.00;98619.47;5012826;28;19921;-67
2023/10/20 00:24:55;;;;;;;;;;;;;;;13.63;100.00;98611.97;5012440;28;19999;-67
2023/10/20 00:27:20;;;;;;;;;;;;;;;13.60;100.00;98607.78;5013809;28;19925;-68
2023/10/20 00:29:45;;;;;;;;;;;;;;;13.56;100.00;98600.28;5012043;28;20692;-67
2023/10/20 00:32:11;;;;;;;;;;;;;;;13.55;100.00;98604.81;5014133;28;19921;-67
2023/10/20 00:34:37;;;;;;;;;;;;;;;13.57;100.00;98596.56;5028233;28;19964;-67
2023/10/20 00:37:02;;;;;;;;;;;;;;;13.55;100.00;98585.94;5012730;28;20098;-68
2023/10/20 00:39:27;;;;;;;;;;;;;;;13.55;100.00;98596.72;5014318;28;20295;-68
2023/10/20 00:41:53;;;;;;;;;;;;;;;13.57;100.00;98591.97;4998508;28;20363;-68
2023/10/20 00:44:18;;;;;;;;;;;;;;;13.57;100.00;98580.38;5018022;28;20402;-68
2023/10/20 00:46:43;;;;;;;;;;;;;;;13.53;100.00;98579.09;5031955;28;20430;-68
2023/10/20 00:49:09;;;;;;;;;;;;;;;13.47;100.00;98564.53;5016908;28;20463;-68
2023/10/20 00:51:34;;;;;;;;;;;;;;;13.43;100.00;98564.06;5001107;28;20011;-68
2023/10/20 00:54:00;;;;;;;;;;;;;;;13.37;100.00;98554.06;5017691;28;20054;-68
2023/10/20 00:56:25;;;;;;;;;;;;;;;13.41;100.00;98551.81;5013572;28;20472;-68
2023/10/20 00:58:51;;;;;;;;;;;;;;;13.39;100.00;98538.50;5032109;28;20086;-68
2023/10/20 01:01:16;;;;;;;;;;;;;;;13.38;100.00;98549.50;5017476;28;19928;-68
2023/10/20 01:03:41;;;;;;;;;;;;;;;13.38;100.00;98539.53;5031232;28;19959;-68
2023/10/20 01:06:07;;;;;;;;;;;;;;;13.33;100.00;98536.59;5033968;28;19957;-67
2023/10/20 01:08:32;;;;;;;;;;;;;;;13.35;100.00;98531.84;5024160;28;20346;-68
2023/10/20 01:10:57;;;;;;;;;;;;;;;13.35;100.00;98524.59;5019843;28;20310;-68
2023/10/20 01:13:23;;;;;;;;;;;;;;;13.33;100.00;98521.25;5031439;28;19921;-68
2023/10/20 01:15:48;;;;;;;;;;;;;;;13.32;100.00;98510.69;5016267;28;19940;-67
2023/10/20 01:18:14;;;;;;;;;;;;;;;13.35;100.00;98507.59;5017283;28;19921;-69
2023/10/20 01:20:39;;;;;;;;;;;;;;;13.31;100.00;98503.63;5016880;28;19921;-68
2023/10/20 01:23:05;;;;;;;;;;;;;;;13.33;100.00;98507.78;5017154;28;20529;-67
2023/10/20 01:25:31;;;;;;;;;;;;;;;13.31;100.00;98504.44;5018743;28;19925;-67
2023/10/20 01:27:56;;;;;;;;;;;;;;;13.33;100.00;98499.69;5020431;28;19928;-68
2023/10/20 01:30:21;;;;;;;;;;;;;;;13.34;100.00;98490.59;5018816;28;20375;-67
2023/10/20 01:32:46;;;;;;;;;;;;;;;13.32;100.00;98486.44;5016588;28;19936;-68
2023/10/20 01:35:13;;;;;;;;;;;;;;;13.29;100.00;98476.03;5018515;28;19963;-68
2023/10/20 01:37:38;;;;;;;;;;;;;;;13.31;100.00;98468.59;5016705;28;19991;-68
2023/10/20 01:40:04;;;;;;;;;;;;;;;13.31;100.00;98455.94;5017945;28;20402;-67
2023/10/20 01:42:29;;;;;;;;;;;;;;;13.35;100.00;98456.41;5030379;28;20449;-67
2023/10/20 01:44:54;;;;;;;;;;;;;;;13.36;100.00;98452.69;5032347;28;20099;-69
2023/10/20 01:47:19;;;;;;;;;;;;;;;13.35;100.00;98445.63;5017681;28;20001;-67
2023/10/20 01:49:45;;;;;;;;;;;;;;;13.20;100.00;98427.66;5018007;28;19921;-67
2023/10/20 01:52:11;;;;;;;;;;;;;;;13.31;100.00;98457.81;5015983;28;19972;-66
2023/10/20 01:54:37;;;;;;;;;;;;;;;13.32;100.00;98465.69;5018411;28;20559;-66
2023/10/20 01:57:02;;;;;;;;;;;;;;;13.36;100.00;98463.47;5020359;28;19921;-69
2023/10/20 01:59:27;;;;;;;;;;;;;;;13.35;100.00;98462.59;5015687;28;19917;-67
2023/10/20 02:01:53;;;;;;;;;;;;;;;13.34;100.00;98444.78;5020140;28;20002;-67
2023/10/20 02:04:18;;;;;;;;;;;;;;;13.33;100.00;98440.41;5018025;28;20060;-68
2023/10/20 02:06:43;;;;;;;;;;;;;;;13.34;100.00;98439.38;5014139;28;19925;-67
2023/10/20 02:09:09;;;;;;;;;;;;;;;13.34;100.00;98436.69;5031321;28;19921;-67
2023/10/20 02:11:35;;;;;;;;;;;;;;;13.30;100.00;98430.00;5014211;28;19921;-67
2023/10/20 02:14:00;;;;;;;;;;;;;;;13.29;100.00;98422.13;5018223;28;19917;-69
2023/10/20 02:16:25;;;;;;;;;;;;;;;13.30;100.00;98408.47;5017496;28;19967;-67
2023/10/20 02:18:50;;;;;;;;;;;;;;;13.29;100.00;98405.97;5016896;28;20043;-67
2023/10/20 02:21:15;;;;;;;;;;;;;;;13.28;100.00;98401.63;5016496;28;20333;-67
2023/10/20 02:23:41;;;;;;;;;;;;;;;13.25;100.00;98392.03;5029524;28;19959;-67
2023/10/20 02:26:06;;;;;;;;;;;;;;;13.28;100.00;98388.97;5020282;28;19925;-68
2023/10/20 02:28:32;;;;;;;;;;;;;;;13.25;100.00;98385.84;5032365;28;20008;-67
2023/10/20 02:30:58;;;;;;;;;;;;;;;13.20;100.00;98384.56;5017339;28;19928;-68
2023/10/20 02:33:25;;;;;;;;;;;;;;;13.22;100.00;98381.69;5017329;28;19948;-67
2023/10/20 02:35:50;;;;;;;;;;;;;;;13.20;100.00;98384.56;5019246;28;19956;-70
2023/10/20 02:38:15;;;;;;;;;;;;;;;13.18;100.00;98378.53;5012862;28;20044;-67
2023/10/20 02:40:48;;;;;;;;;;;;;;;13.20;100.00;98365.69;5017493;28;19933;-67
2023/10/20 02:43:13;;;;;;;;;;;;;;;13.18;100.00;98362.38;5019362;28;19951;-67
2023/10/20 02:45:46;;;;;;;;;;;;;;;13.23;100.00;98351.03;5021315;28;19925;-67
2023/10/20 02:48:11;;;;;;;;;;;;;;;13.22;100.00;98345.81;5016148;28;19925;-67
2023/10/20 02:50:36;;;;;;;;;;;;;;;13.23;100.00;98348.31;5030579;28;19921;-66
2023/10/20 02:53:01;;;;;;;;;;;;;;;13.23;100.00;98332.16;5013957;28;19959;-67
2023/10/20 02:55:26;;;;;;;;;;;;;;;13.19;100.00;98338.97;5017943;28;19928;-67
2023/10/20 02:57:52;;;;;;;;;;;;;;;13.22;100.00;98325.09;5031223;28;19921;-67
2023/10/20 03:00:18;;;;;;;;;;;;;;;13.20;100.00;98329.84;5016645;28;20408;-67
2023/10/20 03:02:47;;;;;;;;;;;;;;;13.20;100.00;98317.19;5014930;28;19928;-67
2023/10/20 03:05:13;;;;;;;;;;;;;;;13.23;100.00;98309.75;5016882;28;19922;-67
2023/10/20 03:07:38;;;;;;;;;;;;;;;13.24;100.00;98300.66;5015568;28;19925;-67
2023/10/20 03:10:04;;;;;;;;;;;;;;;13.25;100.00;98289.66;5018552;28;20283;-67
2023/10/20 03:12:29;;;;;;;;;;;;;;;13.25;100.00;98299.63;5015666;28;20294;-67
2023/10/20 03:14:54;;;;;;;;;;;;;;;13.24;100.00;98289.88;5014307;28;19924;-67
2023/10/20 03:17:19;;;;;;;;;;;;;;;13.27;100.00;98289.47;5014629;28;20615;-67
2023/10/20 03:19:45;;;;;;;;;;;;;;;13.26;100.00;98275.16;5016791;28;20344;-66
2023/10/20 03:22:11;;;;;;;;;;;;;;;13.21;100.00;98264.16;5015492;28;20294;-67
2023/10/20 03:24:36;;;;;;;;;;;;;;;13.25;100.00;98262.72;5029730;28;19917;-68
2023/10/20 03:27:02;;;;;;;;;;;;;;;13.29;100.00;98263.16;5029814;28;20064;-67
2023/10/20 03:29:27;;;;;;;;;;;;;;;13.30;100.00;98270.22;5012022;28;19922;-67
2023/10/20 03:31:53;;;;;;;;;;;;;;;13.30;100.00;98276.41;5030154;28;19928;-67
2023/10/20 03:34:18;;;;;;;;;;;;;;;13.27;100.00;98268.72;5016191;28;19925;-68
2023/10/20 03:36:43;;;;;;;;;;;;;;;13.28;100.00;98265.00;5015936;28;19921;-67
2023/10/20 03:39:20;;;;;;;;;;;;;;;13.27;100.00;98265.22;5015607;28;19921;-67
2023/10/20 03:41:45;;;;;;;;;;;;;;;13.23;100.00;98262.09;5009521;28;19921;-67
2023/10/20 03:44:10;;;;;;;;;;;;;;;13.22;100.00;98252.34;5020788;28;20288;-66
2023/10/20 03:46:43;;;;;;;;;;;;;;;13.22;100.00;98244.28;5031099;28;20498;-67
2023/10/20 03:49:09;;;;;;;;;;;;;;;13.26;100.00;98242.00;5015572;28;19921;-67
2023/10/20 03:51:35;;;;;;;;;;;;;;;13.26;100.00;98234.72;5015965;28;19925;-67
2023/10/20 03:54:00;;;;;;;;;;;;;;;13.29;100.00;98239.72;5030113;28;19939;-66
2023/10/20 03:56:25;;;;;;;;;;;;;;;13.25;100.00;98229.56;4998759;28;19944;-68
2023/10/20 03:58:51;;;;;;;;;;;;;;;13.25;100.00;98230.38;5013258;28;19947;-67
2023/10/20 04:01:16;;;;;;;;;;;;;;;13.21;100.00;98234.53;5015154;28;19928;-67
2023/10/20 04:03:43;;;;;;;;;;;;;;;13.25;100.00;98232.25;5012693;28;19964;-67
2023/10/20 04:06:09;;;;;;;;;;;;;;;13.25;100.00;98211.50;4998920;28;19948;-67
2023/10/20 04:08:34;;;;;;;;;;;;;;;13.29;100.00;98196.63;5028619;28;19929;-67
2023/10/20 04:10:59;;;;;;;;;;;;;;;13.29;100.00;98199.31;5017050;28;20232;-67
2023/10/20 04:13:25;;;;;;;;;;;;;;;13.30;100.00;98211.75;5009662;28;20322;-67
2023/10/20 04:15:50;;;;;;;;;;;;;;;13.27;100.00;98211.34;5031150;28;20063;-68
2023/10/20 04:18:16;;;;;;;;;;;;;;;13.20;100.00;98209.44;5017221;28;20003;-66
2023/10/20 04:20:42;;;;;;;;;;;;;;;13.23;100.00;98208.22;5018985;28;20012;-67
2023/10/20 04:23:08;;;;;;;;;;;;;;;13.18;100.00;98199.91;5031555;28;19925;-67
2023/10/20 04:25:38;;;;;;;;;;;;;;;13.15;100.00;98181.44;5018548;28;20371;-67
2023/10/20 04:41:54;;;;;;;;;;;;;;;13.22;100.00;98135.66;5017373;28;19936;-67
2023/10/20 04:49:59;;;;;;;;;;;;;;;13.24;100.00;98128.22;5021303;28;20032;-67
2023/10/20 04:52:55;;;;;;;;;;;;;;;13.18;100.00;98124.47;5015672;28;20019;-67
2023/10/20 05:01:03;;;;;;;;;;;;;;;13.24;100.00;98094.03;4994132;28;19975;-67
2023/10/20 05:03:45;;;;;;;;;;;;;;;13.24;100.00;98079.72;5014889;28;19925;-67
2023/10/20 05:08:54;;;;;;;;;;;;;;;13.18;100.00;98068.72;5030582;28;20302;-68
2023/10/20 05:11:19;;;;;;;;;;;;;;;13.20;100.00;98073.91;5016876;28;19921;-67
2023/10/20 05:13:44;;;;;;;;;;;;;;;13.19;100.00;98074.94;5015917;28;22133;-67
2023/10/20 05:16:10;;;;;;;;;;;;;;;13.20;100.00;98072.03;5030297;28;19932;-67
2023/10/20 05:18:38;;;;;;;;;;;;;;;13.20;100.00;98058.56;5017876;28;19964;-68
2023/10/20 05:21:08;;;;;;;;;;;;;;;13.22;100.00;98061.06;5016562;28;20174;-67
2023/10/20 05:23:33;;;;;;;;;;;;;;;13.18;100.00;98060.63;5017687;28;19976;-67
2023/10/20 05:25:59;;;;;;;;;;;;;;;13.16;100.00;98064.56;5030346;28;20367;-67
2023/10/20 05:28:24;;;;;;;;;;;;;;;13.14;100.00;98063.94;5015253;28;19928;-67
2023/10/20 05:30:49;;;;;;;;;;;;;;;13.12;100.00;98055.25;5016434;28;19920;-67
2023/10/20 05:33:15;;;;;;;;;;;;;;;13.14;100.00;98045.09;5016984;28;19921;-67
2023/10/20 05:35:40;;;;;;;;;;;;;;;13.15;100.00;98035.97;5020291;28;19924;-67
2023/10/20 05:38:05;;;;;;;;;;;;;;;13.15;100.00;98036.78;5017315;28;19917;-67
2023/10/20 05:40:31;;;;;;;;;;;;;;;13.15;100.00;98030.59;5017595;28;19925;-68
2023/10/20 05:42:56;;;;;;;;;;;;;;;13.13;100.00;98046.94;5018563;28;19921;-67
2023/10/20 05:45:21;;;;;;;;;;;;;;;13.10;100.00;98051.91;5017315;28;19991;-67
2023/10/20 05:47:46;;;;;;;;;;;;;;;13.19;100.00;98054.22;5018086;28;20348;-68
2023/10/20 05:50:13;;;;;;;;;;;;;;;13.22;100.00;98055.69;5033466;28;20032;-67
2023/10/20 05:52:39;;;;;;;;;;;;;;;13.15;100.00;98069.13;5014637;28;20015;-66
2023/10/20 05:55:05;;;;;;;;;;;;;;;13.10;100.00;98079.69;5018170;28;19966;-68
2023/10/20 05:57:30;;;;;;;;;;;;;;;13.05;100.00;98063.31;5018884;28;19925;-67
2023/10/20 05:59:58;;;;;;;;;;;;;;;13.01;100.00;98064.75;5018265;28;19921;-67
2023/10/20 06:02:24;;;;;;;;;;;;;;;13.05;100.00;98061.44;5017994;28;19928;-67
2023/10/20 06:04:49;;;;;;;;;;;;;;;13.04;100.00;98056.25;5018431;28;19921;-67
2023/10/20 06:07:14;;;;;;;;;;;;;;;13.03;100.00;98060.81;5016769;28;19925;-67
2023/10/20 06:09:39;;;;;;;;;;;;;;;12.99;100.00;98054.16;5018448;28;19956;-67
2023/10/20 06:12:07;;;;;;;;;;;;;;;12.98;100.00;98047.13;5017342;28;20071;-67
2023/10/20 06:14:32;;;;;;;;;;;;;;;12.93;100.00;98057.69;5015236;28;20378;-67
2023/10/20 06:16:57;;;;;;;;;;;;;;;12.92;100.00;98045.25;5018739;28;19928;-69
2023/10/20 06:19:22;;;;;;;;;;;;;;;12.90;100.00;98042.75;5017333;28;19928;-67
2023/10/20 06:21:48;;;;;;;;;;;;;;;12.88;100.00;98042.13;5018246;28;19920;-67
2023/10/20 06:24:13;;;;;;;;;;;;;;;12.87;100.00;98031.56;5015915;28;19920;-69
2023/10/20 06:26:38;;;;;;;;;;;;;;;12.88;100.00;98033.22;5017384;28;19975;-68
2023/10/20 06:29:20;;;;;;;;;;;;;;;12.83;100.00;98041.94;5016485;28;19964;-67
2023/10/20 06:31:51;;;;;;;;;;;;;;;12.75;100.00;98052.88;5016594;28;19921;-66
2023/10/20 06:34:23;;;;;;;;;;;;;;;12.83;100.00;98054.53;5015720;28;20283;-67
2023/10/20 06:36:49;;;;;;;;;;;;;;;12.78;100.00;98041.69;5017375;28;20390;-70
2023/10/20 06:39:15;;;;;;;;;;;;;;;12.77;100.00;98028.41;5015648;28;19921;-67
2023/10/20 06:41:40;;;;;;;;;;;;;;;12.76;100.00;98019.53;5013928;28;19925;-68
2023/10/20 06:44:05;;;;;;;;;;;;;;;12.70;100.00;98023.03;5017647;28;19928;-68
2023/10/20 06:46:31;;;;;;;;;;;;;;;12.68;100.00;98031.31;5015044;28;20317;-67
2023/10/20 06:48:56;;;;;;;;;;;;;;;12.70;100.00;98031.09;5018992;28;19921;-68
2023/10/20 06:51:21;;;;;;;;;;;;;;;12.67;100.00;98032.34;5017351;28;19921;-68
2023/10/20 06:53:46;;;;;;;;;;;;;;;12.66;100.00;98037.91;5014916;28;20261;-68
2023/10/20 06:56:12;;;;;;;;;;;;;;;12.63;100.00;98039.16;5018918;28;19963;-70
2023/10/20 06:58:37;;;;;;;;;;;;;;;12.60;100.00;98029.59;5017085;28;19928;-68
2023/10/20 07:01:05;;;;;;;;;;;;;;;12.59;100.00;98021.75;5017330;28;19960;-67
2023/10/20 07:03:32;;;;;;;;;;;;;;;12.51;100.00;98024.63;5016404;28;20255;-68
2023/10/20 07:05:57;;;;;;;;;;;;;;;12.47;100.00;98026.88;5017880;28;19925;-67
2023/10/20 07:08:22;;;;;;;;;;;;;;;12.41;100.00;98001.63;5015541;28;20291;-67
2023/10/20 07:10:50;;;;;;;;;;;;;;;12.40;100.00;98009.88;5030988;28;19968;-67
2023/10/20 07:13:17;;;;;;;;;;;;;;;12.41;100.00;98008.84;5016342;28;20274;-67
2023/10/20 07:15:42;;;;;;;;;;;;;;;12.40;100.00;98012.56;5017084;28;20035;-68
2023/10/20 07:18:08;;;;;;;;;;;;;;;12.37;100.00;98011.13;5017515;28;20426;-70
2023/10/20 07:20:38;;;;;;;;;;;;;;;12.37;100.00;98021.03;5016913;28;19963;-68
2023/10/20 07:23:05;;;;;;;;;;;;;;;12.26;100.00;98006.28;5015757;28;20335;-68
2023/10/20 07:25:30;;;;;;;;;;;;;;;12.23;100.00;98017.44;5017804;28;19975;-67
2023/10/20 07:27:57;;;;;;;;;;;;;;;12.24;100.00;98016.44;5012121;28;20675;-70
2023/10/20 07:30:23;;;;;;;;;;;;;;;12.23;100.00;98007.53;5013695;28;19921;-68
2023/10/20 07:32:51;;;;;;;;;;;;;;;12.25;100.00;98002.78;5009299;28;19921;-69
2023/10/20 07:35:16;;;;;;;;;;;;;;;12.19;100.00;98000.91;5013205;28;19921;-68
2023/10/20 07:37:42;;;;;;;;;;;;;;;12.12;100.00;98002.72;5016906;28;20068;-68
2023/10/20 07:40:08;;;;;;;;;;;;;;;12.11;100.00;98001.91;5016327;28;20022;-68
2023/10/20 07:42:33;;;;;;;;;;;;;;;12.04;100.00;98003.72;5015177;28;20019;-69
2023/10/20 07:44:58;;;;;;;;;;;;;;;12.02;100.00;98005.78;5016074;28;20362;-70
2023/10/20 07:47:24;;;;;;;;;;;;;;;12.03;100.00;98007.44;5020289;28;20279;-68
2023/10/20 07:49:50;;;;;;;;;;;;;;;12.00;100.00;98013.19;5013493;28;19925;-68
2023/10/20 07:52:16;;;;;;;;;;;;;;;11.93;100.00;98010.44;5012054;28;19921;-69
2023/10/20 07:54:41;;;;;;;;;;;;;;;11.99;100.00;98001.63;5013865;28;19953;-70
2023/10/20 07:57:07;;;;;;;;;;;;;;;11.97;100.00;98002.81;5016691;28;20052;-69
2023/10/20 07:59:32;;;;;;;;;;;;;;;11.92;100.00;98008.78;5013026;28;20432;-69
2023/10/20 08:01:57;;;;;;;;;;;;;;;11.89;100.00;98001.13;5016385;28;19925;-69
2023/10/20 08:04:22;;;;;;;;;;;;;;;11.80;100.00;97997.75;5019701;28;19921;-71
2023/10/20 08:06:48;;;;;;;;;;;;;;;11.77;100.00;98000.03;5028489;28;20029;-68
2023/10/20 08:09:13;;;;;;;;;;;;;;;11.76;100.00;97991.13;5011517;28;20508;-69
2023/10/20 08:11:39;;;;;;;;;;;;;;;11.75;100.00;97994.81;5027936;28;19955;-70
2023/10/20 08:14:05;;;;;;;;;;;;;;;11.74;100.00;97974.34;5027977;28;19921;-70
2023/10/20 08:16:30;;;;;;;;;;;;;;;11.76;100.00;97974.16;5028503;28;20362;-69
2023/10/20 08:18:55;;;;;;;;;;;;;;;11.60;100.00;97969.94;5009968;28;19921;-69
2023/10/20 08:21:26;;;;;;;;;;;;;;;11.57;100.00;97978.38;5011730;28;19925;-69
2023/10/20 08:23:51;;;;;;;;;;;;;;;11.55;100.00;97975.88;5027257;28;20023;-70
2023/10/20 08:26:18;;;;;;;;;;;;;;;11.58;100.00;97985.41;5014417;28;19931;-70
2023/10/20 08:28:44;;;;;;;;;;;;;;;11.51;100.00;97982.69;5008985;28;19921;-71
2023/10/20 08:31:10;;;;;;;;;;;;;;;11.45;100.00;97978.91;5015608;28;19925;-70
2023/10/20 08:33:35;;;;;;;;;;;;;;;11.45;100.00;97988.84;5026299;28;20294;-69
2023/10/20 08:36:14;;;;;;;;;;;;;;;11.34;100.00;97990.22;5011859;28;20326;-68
2023/10/20 08:38:40;;;;;;;;;;;;;;;11.30;100.00;97980.88;5011059;28;19925;-69
2023/10/20 08:41:09;;;;;;;;;;;;;;;11.27;100.00;97982.06;5014222;28;19925;-70
2023/10/20 08:43:35;;;;;;;;;;;;;;;11.25;100.00;97989.53;5017415;28;19952;-71
2023/10/20 08:46:00;;;;;;;;;;;;;;;11.21;100.00;97990.94;5012027;28;20063;-70
2023/10/20 08:48:25;;;;;;;;;;;;;;;11.14;100.00;97988.16;5009737;28;20012;-71
2023/10/20 08:50:51;;;;;;;;;;;;;;;11.16;100.00;97991.50;5007223;28;20281;-71
2023/10/20 08:53:16;;;;;;;;;;;;;;;11.12;100.00;97984.03;5009435;28;19928;-71
2023/10/20 08:55:41;;;;;;;;;;;;;;;11.13;100.00;97977.63;5012348;28;19920;-71
2023/10/20 08:58:06;;;;;;;;;;;;;;;11.09;100.00;97978.00;5011276;28;19925;-71
2023/10/20 09:00:32;;;;;;;;;;;;;;;11.07;100.00;97976.56;4993468;28;19928;-71
2023/10/20 09:02:57;;;;;;;;;;;;;;;11.03;100.00;97977.97;5011500;28;20100;-70
2023/10/20 09:05:23;;;;;;;;;;;;;;;11.02;100.00;97973.63;5014957;28;19960;-70
2023/10/20 09:07:56;;;;;;;;;;;;;;;11.00;100.00;97976.47;5015103;28;20003;-71
2023/10/20 09:10:21;;;;;;;;;;;;;;;10.92;100.00;97982.81;4998917;28;20048;-71
2023/10/20 09:12:46;;;;;;;;;;;;;;;10.99;100.00;97984.72;5031684;28;20322;-71
2023/10/20 09:15:11;;;;;;;;;;;;;;;11.01;100.00;97988.88;5013605;28;19921;-70
2023/10/20 09:17:37;;;;;;;;;;;;;;;10.94;100.00;97983.44;5017280;28;19921;-71
2023/10/20 09:20:11;;;;;;;;;;;;;;;10.99;100.00;97976.69;5018925;28;19921;-70
2023/10/20 09:22:41;;;;;;;;;;;;;;;10.92;100.00;97977.44;5015046;28;20405;-70
2023/10/20 09:25:10;;;;;;;;;;;;;;;10.89;100.00;97987.75;5016380;28;20117;-70
2023/10/20 09:27:36;;;;;;;;;;;;;;;10.85;100.00;97979.25;5017005;28;20225;-71
2023/10/20 09:30:01;;;;;;;;;;;;;;;10.85;100.00;97981.09;5017051;28;19964;-71
2023/10/20 09:32:26;;;;;;;;;;;;;;;10.86;100.00;97978.19;5016385;28;20142;-71
2023/10/20 09:34:52;;;;;;;;;;;;;;;10.83;100.00;97972.41;5019212;28;20023;-70
2023/10/20 09:37:17;;;;;;;;;;;;;;;10.85;100.00;97973.03;5016431;28;20004;-71
2023/10/20 09:39:43;;;;;;;;;;;;;;;10.84;100.00;97958.81;5016751;28;19921;-70
2023/10/20 09:42:09;;;;;;;;;;;;;;;10.79;100.00;97962.03;5015652;28;19960;-71
2023/10/20 09:44:39;;;;;;;;;;;;;;;10.84;100.00;97971.38;5030438;28;20274;-71
2023/10/20 09:47:19;;;;;;;;;;;;;;;10.82;100.00;97968.91;5017804;28;20031;-70
2023/10/20 09:49:44;;;;;;;;;;;;;;;10.85;100.00;97970.34;5014434;28;19921;-71
2023/10/20 09:52:10;;;;;;;;;;;;;;;10.88;100.00;97970.78;5015744;28;19952;-71
2023/10/20 09:54:36;;;;;;;;;;;;;;;10.88;100.00;97975.34;5014096;28;19929;-72
2023/10/20 09:57:01;;;;;;;;;;;;;;;10.83;100.00;97975.94;5017873;28;19967;-72
2023/10/20 09:59:30;;;;;;;;;;;;;;;10.90;100.00;97965.25;4999924;28;19928;-72
2023/10/20 10:01:56;;;;;;;;;;;;;;;10.89;100.00;97972.44;5019442;28;20103;-71
2023/10/20 10:04:25;;;;;;;;;;;;;;;10.82;100.00;97963.53;5021226;28;20106;-73
2023/10/20 10:06:51;;;;;;;;;;;;;;;10.90;100.00;97968.75;5035412;28;19972;-72
2023/10/20 10:09:16;;;;;;;;;;;;;;;10.86;100.00;97945.19;5016921;28;20003;-72
2023/10/20 10:11:44;;;;;;;;;;;;;;;10.90;100.00;97949.13;5015826;28;19921;-72
2023/10/20 10:14:19;;;;;;;;;;;;;;;10.95;100.00;97950.22;5033677;28;20131;-73
2023/10/20 10:16:49;;;;;;;;;;;;;;;10.99;100.00;97957.88;5002071;28;19928;-72
2023/10/20 10:19:16;;;;;;;;;;;;;;;10.99;100.00;97952.53;5030419;28;20372;-71
2023/10/20 10:21:42;;;;;;;;;;;;;;;10.89;100.00;97953.66;5014755;28;20011;-71
2023/10/20 10:24:14;;;;;;;;;;;;;;;10.90;100.00;97949.13;5014406;28;19927;-72
2023/10/20 10:27:03;;;;;;;;;;;;;;;10.94;100.00;97948.56;5031654;28;19929;-73
2023/10/20 10:29:53;;;;;;;;;;;;;;;10.85;100.00;97944.38;5018082;28;20214;-73
2023/10/20 10:32:19;;;;;;;;;;;;;;;10.80;100.00;97938.72;5031686;28;20111;-73
2023/10/20 10:34:44;;;;;;;;;;;;;;;10.81;100.00;97940.41;5016807;28;19921;-72
2023/10/20 10:37:10;;;;;;;;;;;;;;;10.82;100.00;97941.22;5032461;28;20761;-73
2023/10/20 10:39:35;;;;;;;;;;;;;;;10.70;100.00;97914.06;5017824;28;20365;-73
2023/10/20 10:42:01;;;;;;;;;;;;;;;10.84;100.00;97937.34;5013150;28;20016;-71
2023/10/20 10:44:30;;;;;;;;;;;;;;;10.79;100.00;97929.03;5015902;28;19923;-74
2023/10/20 10:46:55;;;;;;;;;;;;;;;10.78;100.00;97930.84;5017750;28;20170;-73
2023/10/20 10:49:20;;;;;;;;;;;;;;;10.79;100.00;97926.34;5016695;28;19925;-73
2023/10/20 10:51:46;;;;;;;;;;;;;;;10.76;100.00;97927.53;5016357;28;19956;-74
2023/10/20 10:54:12;;;;;;;;;;;;;;;10.78;100.00;97914.75;5015264;28;20347;-71
2023/10/20 10:56:38;;;;;;;;;;;;;;;10.73;100.00;97919.88;5018118;28;19943;-73
2023/10/20 10:59:03;;;;;;;;;;;;;;;10.62;100.00;97893.56;5017380;28;20442;-74
2023/10/20 11:01:28;;;;;;;;;;;;;;;10.73;100.00;97909.13;5018173;28;19928;-73
2023/10/20 11:03:53;;;;;;;;;;;;;;;10.77;100.00;97893.50;5014456;28;19921;-74
2023/10/20 11:06:19;;;;;;;;;;;;;;;10.73;100.00;97900.25;5014865;28;19961;-72
2023/10/20 11:08:44;;;;;;;;;;;;;;;10.77;100.00;97893.50;5011428;28;20383;-73
2023/10/20 11:11:10;;;;;;;;;;;;;;;10.77;100.00;97893.50;5009264;28;19932;-74
2023/10/20 11:13:35;;;;;;;;;;;;;;;10.82;100.00;97877.66;5010586;28;19928;-74
2023/10/20 11:16:01;;;;;;;;;;;;;;;10.82;100.00;97877.66;5004811;28;19932;-74
2023/10/20 11:18:26;;;;;;;;;;;;;;;10.77;100.00;97870.16;5005163;28;19955;-72
2023/10/20 11:20:52;;;;;;;;;;;;;;;10.81;100.00;97857.19;5025582;28;20440;-73
2023/10/20 11:23:27;;;;;;;;;;;;;;;10.84;100.00;97851.44;5005624;28;20004;-76
2023/10/20 11:25:52;;;;;;;;;;;;;;;10.82;100.00;97848.13;5025982;28;20490;-80
2023/10/20 11:28:17;;;;;;;;;;;;;;;10.88;100.00;97841.13;5023014;28;19921;-74
2023/10/20 11:30:45;;;;;;;;;;;;;;;10.90;100.00;97844.47;5008339;28;19920;-74
2023/10/20 11:33:10;;;;;;;;;;;;;;;10.87;100.00;97837.59;5010139;28;20738;-73
2023/10/20 11:35:35;;;;;;;;;;;;;;;10.93;100.00;97836.03;5007982;28;20198;-74
2023/10/20 11:38:01;;;;;;;;;;;;;;;10.95;100.00;97842.84;5006815;28;19921;-75
2023/10/20 11:40:26;;;;;;;;;;;;;;;10.89;100.00;97834.75;5009501;28;20643;-73
2023/10/20 11:42:51;;;;;;;;;;;;;;;10.98;100.00;97838.09;5005882;28;19928;-73
2023/10/20 11:45:16;;;;;;;;;;;;;;;10.91;100.00;97832.69;5025574;28;19921;-75
2023/10/20 11:47:42;;;;;;;;;;;;;;;10.95;100.00;97826.72;5024778;28;19925;-75
2023/10/20 11:50:10;;;;;;;;;;;;;;;10.95;100.00;97813.31;4993626;28;19928;-75
2023/10/20 11:52:38;;;;;;;;;;;;;;;11.01;100.00;97811.69;5008835;28;20018;-76
2023/10/20 11:55:04;;;;;;;;;;;;;;;11.02;100.00;97813.34;5009319;28;20382;-74
2023/10/20 11:57:29;;;;;;;;;;;;;;;10.99;100.00;97805.69;5005470;28;20359;-74
2023/10/20 11:59:55;;;;;;;;;;;;;;;11.04;100.00;97797.88;5008550;28;19932;-76
2023/10/20 12:02:20;;;;;;;;;;;;;;;11.02;100.00;97802.59;5004464;28;21024;-73
2023/10/20 12:04:45;;;;;;;;;;;;;;;11.08;100.00;97793.78;5023622;28;19955;-74
2023/10/20 12:07:10;;;;;;;;;;;;;;;11.05;100.00;97799.53;5024673;28;19925;-74
2023/10/20 12:09:35;;;;;;;;;;;;;;;11.07;100.00;97796.66;5013061;28;19917;-74
2023/10/20 12:12:01;;;;;;;;;;;;;;;10.99;100.00;97800.31;4993637;28;19921;-74
2023/10/20 12:14:26;;;;;;;;;;;;;;;10.95;100.00;97797.19;5007950;28;20091;-73
2023/10/20 12:16:51;;;;;;;;;;;;;;;10.91;100.00;97804.00;5025975;28;20022;-73
2023/10/20 12:19:18;;;;;;;;;;;;;;;10.92;100.00;97796.78;5010814;28;19921;-74
2023/10/20 12:21:43;;;;;;;;;;;;;;;10.93;100.00;97787.69;5012796;28;19921;-74
2023/10/20 12:24:09;;;;;;;;;;;;;;;10.87;100.00;97780.44;5009157;28;19968;-74
2023/10/20 12:26:34;;;;;;;;;;;;;;;10.89;100.00;97783.75;5025405;28;19921;-73
2023/10/20 12:28:59;;;;;;;;;;;;;;;10.88;100.00;97784.78;5012353;28;20021;-73
2023/10/20 12:31:25;;;;;;;;;;;;;;;10.86;100.00;97782.28;5014865;28;19925;-73
2023/10/20 12:33:50;;;;;;;;;;;;;;;10.83;100.00;97776.47;5031004;28;20788;-74
2023/10/20 12:36:19;;;;;;;;;;;;;;;10.87;100.00;97777.75;5013364;28;19932;-73
2023/10/20 12:38:44;;;;;;;;;;;;;;;10.91;100.00;97779.00;5017963;28;19964;-75
2023/10/20 12:41:13;;;;;;;;;;;;;;;10.80;100.00;97773.16;4997986;28;20020;-73
2023/10/20 12:43:38;;;;;;;;;;;;;;;10.77;100.00;97764.69;5019967;28;20003;-75
2023/10/20 12:46:04;;;;;;;;;;;;;;;10.75;100.00;97756.81;5030122;28;19932;-74
2023/10/20 12:48:29;;;;;;;;;;;;;;;10.74;100.00;97757.84;5016551;28;19928;-74
2023/10/20 12:50:56;;;;;;;;;;;;;;;10.79;100.00;97762.63;5018100;28;20402;-75
2023/10/20 12:53:22;;;;;;;;;;;;;;;10.85;100.00;97766.38;4995817;28;19921;-74
2023/10/20 12:55:47;;;;;;;;;;;;;;;10.72;100.00;97770.66;5029923;28;19950;-73
2023/10/20 12:58:13;;;;;;;;;;;;;;;10.77;100.00;97762.00;5014391;28;19921;-74